createdAt,value
2022-08-18T00:04:57.949Z,6.00
2022-08-18T00:10:02.202Z,7.20
2022-08-18T00:15:08.758Z,7.50
2022-08-18T00:20:14.777Z,7.00
2022-08-18T00:25:19.245Z,7.00
2022-08-18T00:30:23.599Z,6.60
2022-08-18T00:35:29.344Z,8.20
2022-08-18T00:40:37.965Z,8.00
2022-08-18T00:45:43.909Z,6.20
2022-08-18T00:50:52.967Z,7.50
2022-08-18T00:55:57.747Z,7.00
2022-08-18T01:01:05.907Z,7.00
2022-08-18T01:06:16.395Z,7.40
2022-08-18T01:11:19.286Z,8.00
2022-08-18T01:16:41.271Z,7.40
2022-08-18T01:22:07.971Z,8.00
2022-08-18T01:27:17.846Z,7.50
2022-08-18T01:32:24.187Z,7.25
2022-08-18T01:37:26.942Z,7.25
2022-08-18T01:42:31.052Z,8.00
2022-08-18T01:47:47.739Z,7.20
2022-08-18T01:52:57.577Z,7.80
2022-08-18T01:58:01.761Z,8.00
2022-08-18T02:03:08.721Z,7.00
2022-08-18T02:08:15.431Z,6.80
2022-08-18T02:13:19.838Z,7.00
2022-08-18T02:18:41.514Z,7.50
2022-08-18T02:23:53.518Z,7.00
2022-08-18T02:28:58.535Z,6.50
2022-08-18T02:34:01.266Z,6.75
2022-08-18T02:39:04.890Z,7.50
2022-08-18T02:44:09.774Z,7.60
2022-08-18T02:49:13.170Z,7.60
2022-08-18T02:54:16.031Z,8.40
2022-08-18T02:59:24.187Z,9.25
2022-08-18T03:04:30.769Z,7.25
2022-08-18T03:09:35.374Z,8.40
2022-08-18T03:14:40.404Z,6.20
2022-08-18T03:19:44.977Z,7.00
2022-08-18T03:24:50.524Z,7.25
2022-08-18T03:29:54.865Z,7.80
2022-08-18T03:34:57.626Z,7.50
2022-08-18T03:40:00.440Z,8.75
2022-08-18T03:45:13.160Z,8.00
2022-08-18T03:50:21.741Z,7.80
2022-08-18T03:55:24.454Z,10.00
2022-08-18T04:00:28.823Z,8.50
2022-08-18T04:05:32.317Z,9.25
2022-08-18T04:10:36.536Z,8.75
2022-08-18T04:15:40.596Z,9.00
2022-08-18T04:20:59.471Z,10.00
2022-08-18T04:26:04.076Z,9.00
2022-08-18T04:31:10.389Z,11.00
2022-08-18T04:36:18.718Z,11.00
2022-08-18T04:41:26.931Z,9.50
2022-08-18T04:46:32.054Z,10.50
2022-08-18T04:52:26.720Z,10.50
2022-08-18T04:56:57.995Z,8.50
2022-08-18T05:02:05.573Z,11.00
2022-08-18T05:07:10.615Z,9.25
2022-08-18T05:12:15.421Z,10.00
2022-08-18T05:17:19.527Z,9.50
2022-08-18T05:22:24.288Z,11.00
2022-08-18T05:27:36.243Z,10.20
2022-08-18T05:32:48.531Z,10.00
2022-08-18T05:38:15.662Z,10.25
2022-08-18T05:43:18.568Z,9.00
2022-08-18T05:48:22.776Z,9.00
2022-08-18T05:53:45.551Z,9.75
2022-08-18T05:58:57.392Z,11.50
2022-08-18T06:04:06.993Z,11.00
2022-08-18T06:09:14.684Z,11.00
2022-08-18T06:14:17.828Z,11.25
2022-08-18T06:19:37.266Z,12.60
2022-08-18T06:24:48.273Z,11.60
2022-08-18T06:30:05.126Z,11.00
2022-08-18T06:35:19.024Z,11.75
2022-08-18T06:40:21.750Z,13.00
2022-08-18T06:45:33.994Z,12.40
2022-08-18T06:50:51.273Z,11.50
2022-08-18T06:55:54.062Z,13.20
2022-08-18T07:01:01.595Z,12.00
2022-08-18T07:06:10.371Z,13.00
2022-08-18T07:11:20.741Z,11.20
2022-08-18T07:16:54.922Z,13.00
2022-08-18T07:22:05.212Z,12.80
2022-08-18T07:27:10.816Z,13.20
2022-08-18T07:32:22.012Z,11.40
2022-08-18T07:37:30.440Z,11.60
2022-08-18T07:43:00.587Z,11.00
2022-08-18T07:48:27.271Z,11.40
2022-08-18T07:53:55.817Z,11.50
2022-08-18T07:59:08.289Z,12.80
2022-08-18T08:04:25.813Z,11.00
2022-08-18T08:09:53.974Z,13.00
2022-08-18T08:15:06.471Z,12.00
2022-08-18T08:20:23.229Z,14.20
2022-08-18T08:25:46.894Z,12.20
2022-08-18T08:31:13.578Z,12.00
2022-08-18T08:36:28.630Z,10.60
2022-08-18T08:41:39.535Z,10.60
2022-08-18T08:46:48.326Z,12.00
2022-08-18T08:51:57.941Z,11.60
2022-08-18T08:57:04.385Z,13.20
2022-08-18T09:02:47.818Z,11.00
2022-08-18T09:08:21.339Z,10.40
2022-08-18T09:14:11.270Z,11.00
2022-08-18T09:19:47.439Z,10.00
2022-08-18T09:24:52.779Z,10.40
2022-08-18T09:29:59.230Z,10.40
2022-08-18T09:35:14.531Z,11.20
2022-08-18T09:41:02.074Z,10.40
2022-08-18T09:46:06.235Z,10.00
2022-08-18T09:51:34.279Z,9.75
2022-08-18T09:57:21.497Z,10.75
2022-08-18T10:03:13.535Z,10.60
2022-08-18T10:08:52.625Z,10.20
2022-08-18T10:14:09.752Z,9.25
2022-08-18T10:19:34.003Z,9.75
2022-08-18T10:24:53.790Z,11.25
2022-08-18T10:29:58.656Z,9.25
2022-08-18T10:35:01.404Z,9.00
2022-08-18T10:40:21.186Z,9.25
2022-08-18T10:45:30.089Z,9.00
2022-08-18T10:50:42.961Z,8.75
2022-08-18T10:55:52.438Z,8.75
2022-08-18T11:01:11.488Z,9.40
2022-08-18T11:06:21.483Z,9.00
2022-08-18T11:11:36.992Z,8.60
2022-08-18T11:16:54.590Z,10.00
2022-08-18T11:21:57.493Z,9.00
2022-08-18T11:27:03.762Z,9.00
2022-08-18T11:32:20.767Z,9.20
2022-08-18T11:37:48.907Z,7.75
2022-08-18T11:42:57.221Z,9.80
2022-08-18T11:48:03.081Z,9.00
2022-08-18T11:53:18.816Z,9.60
2022-08-18T11:58:41.389Z,7.75
2022-08-18T12:03:49.134Z,8.00
2022-08-18T12:08:58.800Z,9.60
2022-08-18T12:14:32.209Z,7.25
2022-08-18T12:19:34.273Z,7.75
2022-08-18T12:24:39.502Z,7.00
2022-08-18T12:29:44.785Z,7.50
2022-08-18T12:34:48.109Z,7.00
2022-08-18T12:39:51.347Z,8.25
2022-08-18T12:44:55.511Z,8.75
2022-08-18T12:49:58.375Z,8.00
2022-08-18T12:55:04.840Z,8.75
2022-08-18T13:05:35.860Z,8.00
2022-08-18T13:10:45.550Z,8.25
2022-08-18T13:15:57.957Z,7.00
2022-08-18T13:21:03.145Z,8.00
2022-08-18T13:26:09.355Z,7.50
2022-08-18T13:31:14.008Z,7.00
2022-08-18T13:36:17.013Z,7.25
2022-08-18T13:41:20.279Z,7.50
2022-08-18T13:46:30.935Z,6.50
2022-08-18T13:51:34.310Z,7.25
2022-08-18T13:56:37.259Z,7.50
2022-08-18T14:01:52.512Z,7.75
2022-08-18T14:06:59.036Z,7.50
2022-08-18T14:12:05.834Z,7.25
2022-08-18T14:17:10.202Z,7.25
2022-08-18T14:22:39.191Z,7.25
2022-08-18T14:27:42.339Z,7.25
2022-08-18T14:33:00.711Z,7.75
2022-08-18T14:38:05.644Z,7.25
2022-08-18T14:43:09.051Z,6.75
2022-08-18T14:48:14.312Z,6.75
2022-08-18T14:53:20.096Z,8.00
2022-08-18T14:58:29.091Z,6.00
2022-08-18T15:03:33.436Z,7.00
2022-08-18T15:08:37.478Z,7.00
2022-08-18T15:13:43.451Z,7.00
2022-08-18T15:18:49.588Z,8.00
2022-08-18T15:24:15.048Z,6.75
2022-08-18T15:29:28.933Z,6.00
2022-08-18T15:34:46.115Z,6.50
2022-08-18T15:39:51.701Z,7.50
2022-08-18T15:45:11.507Z,8.00
2022-08-18T15:50:25.255Z,8.50
2022-08-18T15:55:35.881Z,7.00
2022-08-18T16:00:45.570Z,8.60
2022-08-18T16:05:53.696Z,8.40
2022-08-18T16:10:57.125Z,9.20
2022-08-18T16:16:00.946Z,8.80
2022-08-18T16:21:08.049Z,9.50
2022-08-18T16:31:26.488Z,10.25
2022-08-18T16:36:30.701Z,10.80
2022-08-18T16:41:33.827Z,9.20
2022-08-18T16:46:37.588Z,8.40
2022-08-18T16:51:45.530Z,8.20
2022-08-18T16:56:48.336Z,13.60
2022-08-18T17:02:08.544Z,11.40
2022-08-18T17:07:12.746Z,12.00
2022-08-18T17:12:15.478Z,13.80
2022-08-18T17:17:18.696Z,14.60
2022-08-18T17:22:23.745Z,14.60
2022-08-18T17:27:37.341Z,17.40
2022-08-18T17:32:46.597Z,13.60
2022-08-18T17:37:59.366Z,13.80
2022-08-18T17:43:02.729Z,15.60
2022-08-18T17:48:11.817Z,13.00
2022-08-18T17:53:17.938Z,12.60
2022-08-18T17:58:27.257Z,15.00
2022-08-18T18:03:30.069Z,14.00
2022-08-18T18:08:51.909Z,18.00
2022-08-18T18:13:55.401Z,17.60
2022-08-18T18:19:02.841Z,17.40
2022-08-18T18:24:29.972Z,18.20
2022-08-18T18:29:38.016Z,19.00
2022-08-18T18:34:46.441Z,23.20
2022-08-18T18:39:56.999Z,29.20
2022-08-18T18:45:02.730Z,26.40
2022-08-18T18:50:10.278Z,20.00
2022-08-18T18:55:18.394Z,18.80
2022-08-18T19:00:29.939Z,17.40
2022-08-18T19:05:38.556Z,19.20
2022-08-18T19:10:50.253Z,18.40
2022-08-18T19:15:58.564Z,16.60
2022-08-18T19:22:04.587Z,16.00
2022-08-18T19:26:34.512Z,14.00
2022-08-18T19:31:40.998Z,15.40
2022-08-18T19:36:49.366Z,14.60
2022-08-18T19:41:59.811Z,15.20
2022-08-18T19:47:09.956Z,12.80
2022-08-18T19:52:56.064Z,15.00
2022-08-18T19:58:10.912Z,15.20
2022-08-18T20:03:35.588Z,16.20
2022-08-18T20:09:10.254Z,16.00
2022-08-18T20:14:18.850Z,16.40
2022-08-18T20:19:43.909Z,14.20
2022-08-18T20:24:53.030Z,15.20
2022-08-18T20:30:29.202Z,17.00
2022-08-18T20:35:37.585Z,16.00
2022-08-18T20:40:45.001Z,14.40
2022-08-18T20:45:55.146Z,15.40
2022-08-18T20:51:09.320Z,17.20
2022-08-18T20:56:32.189Z,15.40
2022-08-18T21:01:40.647Z,14.80
2022-08-18T21:06:44.657Z,15.00
2022-08-18T21:11:49.139Z,12.60
2022-08-18T21:16:53.473Z,15.40
2022-08-18T21:21:58.883Z,17.60
2022-08-18T21:27:06.807Z,15.60
2022-08-18T21:32:14.232Z,16.00
2022-08-18T21:37:19.250Z,15.20
2022-08-18T21:42:26.077Z,14.40
2022-08-18T21:47:33.615Z,14.60
2022-08-18T21:52:38.655Z,15.80
2022-08-18T21:57:52.198Z,15.40
2022-08-18T22:08:29.625Z,14.40
2022-08-18T22:14:02.107Z,12.80
2022-08-18T22:19:08.865Z,13.00
2022-08-18T22:24:21.904Z,13.60
2022-08-18T22:29:32.595Z,12.60
2022-08-18T22:34:36.055Z,14.00
2022-08-18T22:39:44.773Z,14.40
2022-08-18T22:44:48.182Z,14.60
2022-08-18T22:49:51.168Z,13.20
2022-08-18T22:54:55.375Z,15.60
2022-08-18T22:59:58.199Z,13.80
2022-08-18T23:05:03.173Z,16.00
2022-08-18T23:10:13.961Z,13.40
2022-08-18T23:15:18.789Z,16.20
2022-08-18T23:20:21.535Z,15.40
2022-08-18T23:25:30.860Z,13.50
2022-08-18T23:30:34.938Z,15.00
2022-08-18T23:35:38.664Z,14.00
2022-08-18T23:40:45.154Z,15.20
2022-08-18T23:45:49.860Z,15.00
2022-08-18T23:50:52.621Z,14.20
2022-08-18T23:55:56.768Z,16.00
